createdAt,value
2019-04-20T00:00:01.046Z,44.09
2019-04-20T00:02:32.212Z,44.22
2019-04-20T00:05:23.204Z,44.16
2019-04-20T00:08:03.228Z,44.39
2019-04-20T00:10:54.278Z,44.63
2019-04-20T00:13:37.815Z,44.63
2019-04-20T00:16:10.453Z,44.92
2019-04-20T00:19:03.233Z,44.90
2019-04-20T00:24:38.630Z,45.31
2019-04-20T00:27:38.887Z,46.08
2019-04-20T00:30:21.086Z,46.06
2019-04-20T00:32:54.689Z,46.72
2019-04-20T00:35:25.080Z,47.95
2019-04-20T00:38:09.863Z,49.93
2019-04-20T00:40:59.434Z,50.64
2019-04-20T00:43:38.780Z,51.35
2019-04-20T00:46:26.360Z,51.83
2019-04-20T00:49:17.232Z,52.71
2019-04-20T00:52:13.140Z,53.48
2019-04-20T00:54:24.537Z,54.79
2019-04-20T00:57:24.687Z,55.54
2019-04-20T01:00:17.660Z,55.90
2019-04-20T01:02:50.498Z,56.04
2019-04-20T01:05:59.684Z,56.33
2019-04-20T01:08:40.252Z,56.75
2019-04-20T01:11:36.745Z,56.87
2019-04-20T01:14:15.611Z,57.21
2019-04-20T01:17:10.984Z,57.37
2019-04-20T01:19:42.829Z,57.44
2019-04-20T01:22:18.465Z,57.82
2019-04-20T01:25:11.196Z,58.11
2019-04-20T01:28:18.336Z,58.63
2019-04-20T01:30:30.309Z,59.07
2019-04-20T01:33:18.831Z,59.43
2019-04-20T01:36:03.553Z,59.66
2019-04-20T01:38:44.243Z,59.41
2019-04-20T01:41:07.865Z,59.59
2019-04-20T01:43:58.570Z,59.56
2019-04-20T01:46:53.544Z,59.94
2019-04-20T01:49:35.197Z,60.02
2019-04-20T01:55:45.706Z,60.75
2019-04-20T01:58:52.394Z,60.99
2019-04-20T02:01:34.377Z,61.55
2019-04-20T02:04:22.448Z,61.94
2019-04-20T02:07:02.935Z,62.20
2019-04-20T02:09:49.876Z,62.42
2019-04-20T02:12:30.427Z,62.81
2019-04-20T02:18:22.859Z,63.29
2019-04-20T02:21:22.089Z,63.97
2019-04-20T02:23:48.276Z,64.00
2019-04-20T02:26:18.060Z,64.29
2019-04-20T02:29:30.640Z,64.93
2019-04-20T02:35:27.891Z,66.11
2019-04-20T02:46:15.320Z,66.29
2019-04-20T02:49:10.138Z,66.33
2019-04-20T02:51:46.868Z,66.27
2019-04-20T02:54:28.549Z,66.35
2019-04-20T02:57:14.304Z,66.46
2019-04-20T03:00:03.200Z,66.56
2019-04-20T03:02:14.768Z,66.60
2019-04-20T03:04:49.155Z,66.63
2019-04-20T03:07:50.339Z,66.98
2019-04-20T03:10:43.411Z,67.21
2019-04-20T03:13:14.410Z,67.44
2019-04-20T03:16:00.106Z,67.15
2019-04-20T03:18:42.848Z,67.09
2019-04-20T03:21:27.369Z,66.83
2019-04-20T03:24:06.438Z,66.98
2019-04-20T03:26:59.814Z,67.14
2019-04-20T03:30:04.183Z,67.36
2019-04-20T03:33:12.658Z,67.78
2019-04-20T03:35:45.988Z,68.38
2019-04-20T03:38:20.095Z,69.05
2019-04-20T03:40:49.811Z,69.15
2019-04-20T03:43:20.181Z,69.69
2019-04-20T03:46:07.517Z,69.85
2019-04-20T03:49:05.906Z,70.26
2019-04-20T03:51:53.343Z,69.79
2019-04-20T03:54:43.449Z,69.56
2019-04-20T04:01:13.323Z,70.28
2019-04-20T04:04:19.408Z,71.84
2019-04-20T04:06:41.264Z,73.84
2019-04-20T04:09:21.399Z,74.95
2019-04-20T04:12:05.702Z,75.41
2019-04-20T04:14:35.256Z,75.65
2019-04-20T04:17:33.118Z,75.53
2019-04-20T04:20:20.717Z,75.55
2019-04-20T04:23:15.014Z,75.72
2019-04-20T04:26:01.933Z,75.43
2019-04-20T04:28:40.696Z,75.02
2019-04-20T04:31:28.119Z,74.91
2019-04-20T04:34:10.740Z,74.67
2019-04-20T04:36:59.357Z,74.44
2019-04-20T04:39:42.921Z,74.13
2019-04-20T04:42:35.144Z,73.86
2019-04-20T04:44:53.531Z,74.05
2019-04-20T04:47:32.566Z,73.92
2019-04-20T04:50:56.479Z,73.39
2019-04-20T04:53:40.822Z,73.03
2019-04-20T04:56:14.121Z,73.12
2019-04-20T04:58:53.705Z,72.83
2019-04-20T05:01:38.616Z,72.45
2019-04-20T05:07:49.589Z,71.09
2019-04-20T05:13:19.809Z,68.13
2019-04-20T05:16:33.747Z,66.20
2019-04-20T05:22:13.764Z,63.48
2019-04-20T05:25:10.644Z,62.92
2019-04-20T05:30:43.924Z,58.86
2019-04-20T05:33:25.440Z,57.97
2019-04-20T05:36:14.731Z,57.53
2019-04-20T05:39:05.219Z,56.85
2019-04-20T05:41:37.324Z,56.46
2019-04-20T05:47:24.025Z,55.56
2019-04-20T05:49:53.872Z,54.84
2019-04-20T05:52:53.663Z,53.17
2019-04-20T05:55:25.266Z,51.75
2019-04-20T05:58:08.821Z,48.88
2019-04-20T06:00:55.407Z,49.26
2019-04-20T06:03:33.571Z,48.07
2019-04-20T06:06:16.818Z,48.00
2019-04-20T06:08:59.631Z,48.65
2019-04-20T06:11:52.371Z,49.09
2019-04-20T06:14:39.199Z,50.34
2019-04-20T06:20:31.292Z,50.02
2019-04-20T06:23:34.628Z,49.52
2019-04-20T06:26:33.585Z,48.84
2019-04-20T06:29:18.430Z,47.80
2019-04-20T06:32:05.090Z,47.97
2019-04-20T06:35:02.480Z,47.66
2019-04-20T06:37:29.297Z,47.50
2019-04-20T06:40:35.126Z,46.89
2019-04-20T06:42:59.957Z,46.40
2019-04-20T06:45:51.142Z,46.33
2019-04-20T06:48:36.346Z,45.62
2019-04-20T06:51:09.205Z,44.13
2019-04-20T06:53:51.560Z,44.08
2019-04-20T06:56:42.081Z,44.21
2019-04-20T06:59:27.577Z,43.25
2019-04-20T07:02:11.709Z,43.48
2019-04-20T07:04:48.135Z,43.88
2019-04-20T07:07:27.921Z,43.14
2019-04-20T07:10:08.692Z,42.40
2019-04-20T07:12:33.059Z,42.75
2019-04-20T07:15:19.894Z,42.91
2019-04-20T07:18:09.535Z,42.19
2019-04-20T07:21:09.878Z,42.19
2019-04-20T07:23:41.865Z,40.59
2019-04-20T07:26:24.203Z,40.67
2019-04-20T07:29:07.129Z,41.10
2019-04-20T07:31:44.544Z,40.77
2019-04-20T07:34:34.822Z,40.27
2019-04-20T07:40:15.151Z,39.98
2019-04-20T07:42:58.995Z,39.03
2019-04-20T07:45:36.478Z,38.95
2019-04-20T07:48:26.211Z,38.42
2019-04-20T07:50:56.829Z,38.49
2019-04-20T07:53:42.218Z,38.64
2019-04-20T07:56:32.611Z,38.51
2019-04-20T07:58:57.105Z,37.45
2019-04-20T08:02:29.430Z,36.66
2019-04-20T08:10:28.715Z,35.58
2019-04-20T08:13:21.563Z,35.02
2019-04-20T08:16:00.956Z,34.29
2019-04-20T08:18:41.268Z,34.75
2019-04-20T08:21:22.863Z,34.82
2019-04-20T08:24:02.414Z,33.20
2019-04-20T08:26:30.951Z,33.34
2019-04-20T08:35:20.104Z,33.44
2019-04-20T08:38:32.613Z,33.58
2019-04-20T08:40:44.161Z,33.54
2019-04-20T08:43:39.585Z,33.38
2019-04-20T08:46:05.510Z,32.37
2019-04-20T08:48:46.788Z,32.45
2019-04-20T08:51:41.640Z,31.78
2019-04-20T08:54:14.374Z,31.41
2019-04-20T08:56:46.188Z,32.64
2019-04-20T08:59:23.266Z,32.49
2019-04-20T09:02:09.882Z,29.59
2019-04-20T09:04:55.231Z,29.25
2019-04-20T09:07:32.054Z,28.78
2019-04-20T09:13:26.966Z,28.66
2019-04-20T09:16:10.858Z,27.41
2019-04-20T09:18:56.406Z,25.49
2019-04-20T09:21:40.266Z,23.92
2019-04-20T09:24:38.197Z,24.10
2019-04-20T09:30:05.795Z,23.37
2019-04-20T09:32:43.949Z,22.59
2019-04-20T09:35:38.729Z,22.77
2019-04-20T09:38:14.456Z,23.45
2019-04-20T09:41:03.580Z,23.07
2019-04-20T09:43:38.996Z,22.50
2019-04-20T09:46:16.002Z,22.61
2019-04-20T09:48:51.193Z,22.39
2019-04-20T09:51:55.126Z,22.32
2019-04-20T09:54:40.304Z,22.00
2019-04-20T09:57:26.790Z,21.35
2019-04-20T10:00:10.254Z,21.97
2019-04-20T10:02:35.007Z,22.13
2019-04-20T10:05:15.682Z,21.89
2019-04-20T10:10:43.806Z,21.81
2019-04-20T10:13:27.178Z,21.76
2019-04-20T10:16:09.198Z,21.85
2019-04-20T10:18:59.004Z,21.32
2019-04-20T10:21:48.758Z,21.36
2019-04-20T10:24:39.564Z,20.91
2019-04-20T10:27:10.683Z,20.29
2019-04-20T10:30:02.758Z,20.53
2019-04-20T10:32:53.937Z,20.99
2019-04-20T10:35:29.832Z,21.27
2019-04-20T10:38:27.864Z,20.70
2019-04-20T10:41:11.463Z,20.65
2019-04-20T10:43:47.216Z,20.67
2019-04-20T10:46:37.002Z,20.23
2019-04-20T10:49:27.134Z,19.84
2019-04-20T10:52:09.837Z,19.85
2019-04-20T10:55:00.644Z,20.11
2019-04-20T10:57:43.801Z,19.88
2019-04-20T11:04:02.952Z,19.76
2019-04-20T11:06:47.551Z,19.39
2019-04-20T11:09:18.504Z,19.12
2019-04-20T11:12:10.440Z,19.20
2019-04-20T11:14:48.010Z,19.37
2019-04-20T11:17:31.707Z,19.00
2019-04-20T11:23:18.219Z,19.35
2019-04-20T11:26:08.516Z,19.39
2019-04-20T11:28:52.291Z,18.85
2019-04-20T11:31:40.920Z,18.53
2019-04-20T11:34:14.909Z,18.46
2019-04-20T11:36:55.098Z,18.21
2019-04-20T11:40:06.278Z,18.31
2019-04-20T11:42:41.787Z,17.94
2019-04-20T11:45:32.914Z,17.84
2019-04-20T11:48:23.377Z,17.85
2019-04-20T11:51:01.396Z,17.96
2019-04-20T11:53:43.331Z,18.02
2019-04-20T11:56:38.308Z,17.95
2019-04-20T12:03:21.824Z,18.17
2019-04-20T12:05:53.700Z,18.25
2019-04-20T12:09:14.941Z,17.89
2019-04-20T12:12:10.193Z,17.79
2019-04-20T12:14:40.978Z,17.43
2019-04-20T12:17:23.793Z,17.93
2019-04-20T12:23:18.107Z,17.43
2019-04-20T12:25:48.456Z,17.71
2019-04-20T12:28:38.264Z,17.62
2019-04-20T12:31:29.317Z,17.53
2019-04-20T12:34:11.449Z,17.86
2019-04-20T12:36:55.309Z,17.83
2019-04-20T12:39:33.131Z,17.58
2019-04-20T12:42:11.125Z,17.66
2019-04-20T12:44:53.392Z,17.04
2019-04-20T12:47:57.600Z,16.95
2019-04-20T12:50:39.749Z,16.46
2019-04-20T12:53:10.629Z,16.10
2019-04-20T12:56:02.291Z,15.79
2019-04-20T12:58:45.190Z,15.91
2019-04-20T13:01:35.434Z,16.09
2019-04-20T13:04:26.813Z,16.22
2019-04-20T13:07:10.175Z,15.90
2019-04-20T13:13:32.618Z,15.73
2019-04-20T13:19:13.192Z,15.67
2019-04-20T13:21:44.796Z,15.22
2019-04-20T13:24:35.098Z,15.22
2019-04-20T13:27:25.093Z,15.31
2019-04-20T13:30:48.060Z,15.08
2019-04-20T13:33:25.209Z,14.93
2019-04-20T13:35:56.397Z,14.85
2019-04-20T13:38:48.013Z,14.98
2019-04-20T13:41:24.598Z,15.35
2019-04-20T13:43:57.917Z,15.03
2019-04-20T13:46:40.921Z,14.96
2019-04-20T13:49:22.971Z,15.00
2019-04-20T13:52:00.064Z,14.66
2019-04-20T13:54:32.087Z,14.33
2019-04-20T14:00:29.505Z,14.43
2019-04-20T14:03:20.604Z,14.50
2019-04-20T14:05:56.841Z,14.12
2019-04-20T14:08:47.382Z,13.78
2019-04-20T14:11:29.743Z,13.45
2019-04-20T14:14:19.528Z,13.12
2019-04-20T14:17:10.535Z,12.45
2019-04-20T14:19:53.038Z,11.22
2019-04-20T14:22:36.562Z,11.93
2019-04-20T14:25:13.207Z,11.52
2019-04-20T14:27:57.267Z,11.45
2019-04-20T14:30:40.173Z,10.43
2019-04-20T14:33:23.077Z,10.17
2019-04-20T14:36:00.976Z,10.51
2019-04-20T14:38:56.288Z,9.46
2019-04-20T14:41:46.522Z,9.46
2019-04-20T14:47:19.261Z,9.73
2019-04-20T14:50:02.977Z,9.57
2019-04-20T14:52:39.708Z,9.64
2019-04-20T14:55:22.563Z,9.04
2019-04-20T15:01:27.213Z,8.93
2019-04-20T15:04:20.359Z,8.79
2019-04-20T15:07:00.399Z,8.13
2019-04-20T15:09:32.554Z,8.21
2019-04-20T15:12:22.295Z,7.83
2019-04-20T15:15:12.559Z,7.91
2019-04-20T15:20:42.097Z,7.65
2019-04-20T15:23:33.132Z,7.60
2019-04-20T15:26:16.072Z,7.48
2019-04-20T15:28:52.588Z,7.40
2019-04-20T15:31:43.778Z,7.18
2019-04-20T15:34:35.022Z,7.27
2019-04-20T15:37:18.174Z,7.40
2019-04-20T15:39:54.946Z,7.28
